Time;durP1;ratioP1;P1;durP2;ratioP2;P2;SDS_P1;SDS_P2;PMS_P1;PMS_P2;Temp;Humidity;BMP_temperature;BMP_pressure;BME280_temperature;BME280_humidity;BME280_pressure;Samples;Min_cycle;Max_cycle;Signal;HPM_P1;HPM_P2
2023/09/20 00:02:27;;;;;;;5.17;2.70;;;18.10;99.90;;;;;;5047671;28;20304;-66
2023/09/20 00:04:57;;;;;;;7.10;2.40;;;18.10;99.90;;;;;;5058612;28;20220;-65
2023/09/20 00:07:26;;;;;;;6.27;2.70;;;18.00;99.90;;;;;;5052073;28;20687;-65
2023/09/20 00:09:54;;;;;;;9.47;2.60;;;18.20;99.90;;;;;;5059045;28;20217;-65
2023/09/20 00:12:22;;;;;;;6.07;2.60;;;18.10;99.90;;;;;;5053789;28;20196;-65
2023/09/20 00:14:51;;;;;;;5.40;2.57;;;18.10;99.90;;;;;;5058262;28;20195;-64
2023/09/20 00:17:20;;;;;;;9.17;3.13;;;18.20;99.90;;;;;;5052344;28;21243;-65
2023/09/20 00:19:49;;;;;;;4.60;2.77;;;18.20;99.90;;;;;;5060999;28;20310;-66
2023/09/20 00:22:18;;;;;;;6.77;2.80;;;18.20;99.90;;;;;;5058656;28;20570;-66
2023/09/20 00:24:46;;;;;;;4.40;2.63;;;18.30;99.90;;;;;;5059323;28;20243;-65
2023/09/20 00:27:14;;;;;;;5.50;2.70;;;18.20;99.90;;;;;;5054980;28;20200;-65
2023/09/20 00:29:43;;;;;;;6.83;2.70;;;18.20;99.90;;;;;;5060725;28;20200;-64
2023/09/20 00:32:11;;;;;;;6.47;2.50;;;18.20;99.90;;;;;;5057065;28;20215;-64
2023/09/20 00:34:41;;;;;;;7.33;2.70;;;18.20;99.90;;;;;;5055556;28;20228;-64
2023/09/20 00:37:09;;;;;;;5.37;2.60;;;18.20;99.90;;;;;;5059293;28;20785;-63
2023/09/20 00:39:38;;;;;;;6.70;2.77;;;18.30;99.90;;;;;;5056936;28;20232;-65
2023/09/20 00:42:07;;;;;;;9.07;2.53;;;18.20;99.90;;;;;;5054670;28;20189;-65
2023/09/20 00:44:36;;;;;;;4.67;2.77;;;18.20;99.90;;;;;;5057171;28;20559;-64
2023/09/20 00:47:04;;;;;;;6.50;2.63;;;18.20;99.90;;;;;;5055099;28;21188;-64
2023/09/20 00:49:34;;;;;;;8.80;2.53;;;18.10;99.90;;;;;;5056060;28;20728;-65
2023/09/20 00:52:06;;;;;;;5.80;2.20;;;18.20;99.90;;;;;;5054932;28;20224;-65
2023/09/20 00:54:34;;;;;;;6.07;2.70;;;18.10;99.90;;;;;;5057846;28;20228;-65
2023/09/20 00:57:05;;;;;;;6.97;2.40;;;18.10;99.90;;;;;;5058487;28;20196;-66
2023/09/20 00:59:34;;;;;;;4.30;2.77;;;18.10;99.90;;;;;;5035630;28;20690;-66
2023/09/20 01:02:04;;;;;;;5.23;2.73;;;18.10;99.90;;;;;;5030037;28;20228;-65
2023/09/20 01:04:33;;;;;;;7.53;2.67;;;18.00;99.90;;;;;;5033726;28;20225;-66
2023/09/20 01:07:02;;;;;;;5.90;2.40;;;18.00;99.90;;;;;;5032177;28;20227;-63
2023/09/20 01:09:31;;;;;;;9.07;2.73;;;18.00;99.90;;;;;;5036319;28;20654;-65
2023/09/20 01:11:59;;;;;;;6.27;3.40;;;18.00;99.90;;;;;;5036927;28;20565;-66
2023/09/20 01:14:28;;;;;;;3.03;2.27;;;18.00;99.90;;;;;;5040558;28;20216;-64
2023/09/20 01:16:57;;;;;;;5.17;2.73;;;18.00;99.90;;;;;;5031849;28;20227;-66
2023/09/20 01:19:25;;;;;;;4.57;2.57;;;18.00;99.90;;;;;;5037229;28;20263;-65
2023/09/20 01:21:55;;;;;;;5.07;2.60;;;17.90;99.90;;;;;;5036583;28;20221;-65
2023/09/20 01:24:24;;;;;;;2.97;2.60;;;17.90;99.90;;;;;;5038494;28;20219;-65
2023/09/20 01:26:57;;;;;;;7.73;3.03;;;17.90;99.90;;;;;;5035088;28;20228;-65
2023/09/20 01:29:26;;;;;;;6.27;2.90;;;17.80;99.90;;;;;;5038842;28;20221;-66
2023/09/20 01:32:02;;;;;;;7.17;2.80;;;17.80;99.90;;;;;;5035338;28;20228;-64
2023/09/20 01:34:31;;;;;;;8.13;3.50;;;17.70;99.90;;;;;;5033580;28;20224;-65
2023/09/20 01:37:03;;;;;;;6.90;2.70;;;17.80;99.90;;;;;;5036111;28;20214;-65
2023/09/20 01:39:33;;;;;;;8.07;3.10;;;17.80;99.90;;;;;;5037174;28;20217;-66
2023/09/20 01:42:02;;;;;;;7.63;3.20;;;17.70;99.90;;;;;;5036157;28;20543;-64
2023/09/20 01:44:30;;;;;;;6.63;3.37;;;17.70;99.90;;;;;;5034291;28;20227;-64
2023/09/20 01:47:01;;;;;;;4.77;2.70;;;17.80;99.90;;;;;;5044471;28;20295;-66
2023/09/20 01:49:32;;;;;;;6.07;2.87;;;17.70;99.90;;;;;;5037582;28;20744;-65
2023/09/20 01:52:05;;;;;;;7.67;2.60;;;17.60;99.90;;;;;;5030782;28;20216;-65
2023/09/20 01:54:37;;;;;;;4.87;2.73;;;17.50;99.90;;;;;;5035902;28;20216;-65
2023/09/20 01:57:06;;;;;;;8.13;2.77;;;17.50;99.90;;;;;;5029552;28;20635;-64
2023/09/20 01:59:34;;;;;;;4.17;2.97;;;17.50;99.90;;;;;;5037487;28;20656;-66
2023/09/20 02:02:03;;;;;;;5.00;2.83;;;17.50;99.90;;;;;;5027538;28;20225;-65
2023/09/20 02:04:32;;;;;;;8.97;3.07;;;17.40;99.90;;;;;;5031883;28;20255;-65
2023/09/20 02:07:06;;;;;;;5.53;2.80;;;17.30;99.90;;;;;;5031240;28;20294;-65
2023/09/20 02:09:35;;;;;;;3.10;2.63;;;17.30;99.90;;;;;;5035243;28;20310;-65
2023/09/20 02:12:04;;;;;;;5.27;3.00;;;17.20;99.90;;;;;;5031751;28;20196;-65
2023/09/20 02:14:32;;;;;;;6.60;2.93;;;17.10;99.90;;;;;;5034440;28;20210;-64
2023/09/20 02:17:01;;;;;;;3.67;2.60;;;17.10;99.90;;;;;;5044299;28;20278;-65
2023/09/20 02:19:29;;;;;;;6.33;3.00;;;17.00;99.90;;;;;;5058016;28;20227;-65
2023/09/20 02:21:57;;;;;;;7.17;2.70;;;17.00;99.90;;;;;;5054936;28;20257;-65
2023/09/20 02:24:28;;;;;;;7.90;3.00;;;16.90;99.90;;;;;;5055682;28;20234;-65
2023/09/20 02:26:56;;;;;;;6.90;2.83;;;16.90;99.90;;;;;;5052755;28;20207;-64
2023/09/20 02:29:24;;;;;;;4.80;2.80;;;16.80;99.90;;;;;;5053949;28;20230;-65
2023/09/20 02:31:55;;;;;;;8.83;2.90;;;16.80;99.90;;;;;;5052906;28;20227;-63
2023/09/20 02:34:23;;;;;;;7.70;3.27;;;16.80;99.90;;;;;;5050024;28;20873;-64
2023/09/20 02:36:56;;;;;;;7.93;3.43;;;16.80;99.90;;;;;;5054488;28;20211;-65
2023/09/20 02:39:26;;;;;;;10.00;3.03;;;16.70;99.90;;;;;;5055576;28;20233;-63
2023/09/20 02:41:55;;;;;;;6.30;3.13;;;16.70;99.90;;;;;;5054673;28;20192;-65
2023/09/20 02:44:24;;;;;;;3.17;2.87;;;16.70;99.90;;;;;;5051658;28;20220;-64
2023/09/20 02:46:53;;;;;;;5.67;3.50;;;16.70;99.90;;;;;;5055797;28;20262;-65
2023/09/20 02:49:22;;;;;;;5.10;3.03;;;16.70;99.90;;;;;;5049779;28;20239;-65
2023/09/20 02:51:51;;;;;;;7.90;3.17;;;16.70;99.90;;;;;;5049194;28;20311;-65
2023/09/20 02:54:21;;;;;;;9.03;3.20;;;16.80;99.90;;;;;;5050678;28;20261;-65
2023/09/20 02:56:53;;;;;;;8.20;2.97;;;16.70;99.90;;;;;;5051276;28;20201;-65
2023/09/20 02:59:21;;;;;;;4.87;3.30;;;16.70;99.90;;;;;;5055937;28;20333;-65
2023/09/20 03:01:50;;;;;;;11.77;3.43;;;16.70;99.90;;;;;;5051615;28;20696;-65
2023/09/20 03:04:18;;;;;;;8.10;3.43;;;16.70;99.90;;;;;;5046983;28;20216;-65
2023/09/20 03:06:47;;;;;;;8.63;3.20;;;16.70;99.90;;;;;;5056084;28;20302;-65
2023/09/20 03:09:17;;;;;;;8.13;3.27;;;16.70;99.90;;;;;;5058326;28;20249;-65
2023/09/20 03:11:45;;;;;;;3.20;2.80;;;16.70;99.90;;;;;;5057042;28;20191;-66
2023/09/20 03:14:16;;;;;;;9.80;3.50;;;16.70;99.90;;;;;;5058041;28;20216;-66
2023/09/20 03:16:45;;;;;;;6.00;3.13;;;16.70;99.90;;;;;;5056582;28;20759;-64
2023/09/20 03:19:14;;;;;;;8.17;3.10;;;16.70;99.90;;;;;;5055845;28;20232;-65
2023/09/20 03:21:43;;;;;;;3.93;3.23;;;16.70;99.90;;;;;;5054923;28;20225;-64
2023/09/20 03:24:12;;;;;;;6.53;2.60;;;16.70;99.90;;;;;;5055652;28;20211;-64
2023/09/20 03:26:42;;;;;;;9.50;3.27;;;16.70;99.90;;;;;;5052083;28;20206;-64
2023/09/20 03:29:10;;;;;;;5.53;3.33;;;16.70;99.90;;;;;;5060224;28;20224;-65
2023/09/20 03:31:42;;;;;;;6.50;3.07;;;16.60;99.90;;;;;;5055876;28;20225;-65
2023/09/20 03:34:13;;;;;;;7.50;2.83;;;16.70;99.90;;;;;;5052045;28;20224;-64
2023/09/20 03:36:41;;;;;;;6.40;3.20;;;16.70;99.90;;;;;;5057014;28;20235;-65
2023/09/20 03:39:11;;;;;;;5.17;2.67;;;16.60;99.90;;;;;;5056013;28;20231;-65
2023/09/20 03:41:40;;;;;;;8.53;3.00;;;16.60;99.90;;;;;;5057837;28;20200;-64
2023/09/20 03:44:08;;;;;;;4.50;2.73;;;16.60;99.90;;;;;;5052768;28;20326;-65
2023/09/20 03:46:37;;;;;;;8.20;3.10;;;16.70;99.90;;;;;;5057938;28;20225;-65
2023/09/20 03:49:07;;;;;;;4.33;2.93;;;16.70;99.90;;;;;;5054099;28;20225;-63
2023/09/20 03:51:36;;;;;;;5.33;3.00;;;16.70;99.90;;;;;;5057687;28;20223;-65
2023/09/20 03:54:05;;;;;;;9.57;3.00;;;16.70;99.90;;;;;;5053267;28;20713;-64
2023/09/20 03:56:35;;;;;;;5.00;3.13;;;16.60;99.90;;;;;;5059734;28;20414;-65
2023/09/20 03:59:03;;;;;;;8.90;2.80;;;16.60;99.90;;;;;;5055178;28;20243;-63
2023/09/20 04:01:35;;;;;;;7.60;2.77;;;16.60;99.90;;;;;;5053900;28;20223;-65
2023/09/20 04:04:08;;;;;;;7.93;2.77;;;16.60;99.90;;;;;;5049989;28;20305;-65
2023/09/20 04:06:37;;;;;;;4.37;3.00;;;16.50;99.90;;;;;;5060195;28;20232;-66
2023/09/20 04:09:09;;;;;;;6.90;3.10;;;16.60;99.90;;;;;;5053376;28;20200;-61
2023/09/20 04:11:39;;;;;;;6.37;2.60;;;16.50;99.90;;;;;;5062643;28;20279;-64
2023/09/20 04:14:08;;;;;;;4.40;2.90;;;16.60;99.90;;;;;;5056126;28;20247;-63
2023/09/20 04:16:39;;;;;;;3.63;2.67;;;16.60;99.90;;;;;;5047147;28;20263;-65
2023/09/20 04:19:09;;;;;;;4.60;2.80;;;16.60;99.90;;;;;;5054709;28;20234;-66
2023/09/20 04:21:38;;;;;;;8.77;2.80;;;16.60;99.90;;;;;;5058599;28;20230;-65
2023/09/20 04:24:06;;;;;;;5.30;2.57;;;16.60;99.90;;;;;;5055184;28;20204;-63
2023/09/20 04:26:35;;;;;;;9.30;2.90;;;16.60;99.90;;;;;;5060279;28;20212;-65
2023/09/20 04:29:04;;;;;;;8.43;3.30;;;16.60;99.90;;;;;;5058577;28;20679;-66
2023/09/20 04:31:33;;;;;;;3.73;2.33;;;16.50;99.90;;;;;;5057859;28;20228;-65
2023/09/20 04:34:01;;;;;;;6.30;2.73;;;16.60;99.90;;;;;;5059430;28;20599;-65
2023/09/20 04:36:31;;;;;;;5.47;2.83;;;16.50;99.90;;;;;;5060227;28;20704;-65
2023/09/20 04:39:01;;;;;;;3.30;2.40;;;16.50;99.90;;;;;;5059476;28;20200;-65
2023/09/20 04:41:29;;;;;;;3.40;2.80;;;16.50;99.90;;;;;;5057611;28;20224;-64
2023/09/20 04:43:58;;;;;;;10.50;2.93;;;16.40;99.90;;;;;;5059232;28;20718;-65
2023/09/20 04:46:27;;;;;;;12.23;3.00;;;16.50;99.90;;;;;;5054567;28;20357;-66
2023/09/20 04:48:56;;;;;;;5.23;2.73;;;16.40;99.90;;;;;;5054566;28;20228;-65
2023/09/20 04:51:25;;;;;;;2.73;2.53;;;16.40;99.90;;;;;;5055837;28;20530;-66
2023/09/20 04:53:55;;;;;;;5.53;3.03;;;16.40;99.90;;;;;;5053660;28;20209;-65
2023/09/20 04:56:23;;;;;;;9.00;3.00;;;16.40;99.90;;;;;;5056580;28;20215;-65
2023/09/20 04:58:57;;;;;;;9.30;3.70;;;16.40;99.90;;;;;;5053104;28;20273;-65
2023/09/20 05:01:25;;;;;;;7.77;3.60;;;16.40;99.90;;;;;;5047656;28;20216;-64
2023/09/20 05:03:54;;;;;;;10.20;4.90;;;16.40;99.90;;;;;;5048120;28;20587;-66
2023/09/20 05:06:24;;;;;;;7.80;4.27;;;16.40;99.90;;;;;;5049087;28;20204;-64
2023/09/20 05:08:54;;;;;;;11.03;6.40;;;16.40;99.90;;;;;;5055034;28;20291;-67
2023/09/20 05:11:24;;;;;;;9.43;6.27;;;16.40;99.90;;;;;;5055959;28;20222;-65
2023/09/20 05:13:54;;;;;;;14.80;6.93;;;16.40;99.90;;;;;;5052338;28;20327;-65
2023/09/20 05:16:23;;;;;;;15.43;7.17;;;16.30;99.90;;;;;;5055831;28;20701;-63
2023/09/20 05:18:51;;;;;;;15.53;6.67;;;16.40;99.90;;;;;;5050551;28;20215;-65
2023/09/20 05:21:20;;;;;;;9.07;6.33;;;16.40;99.90;;;;;;5052905;28;20561;-65
2023/09/20 05:23:49;;;;;;;17.80;5.77;;;16.40;99.90;;;;;;5054891;28;20187;-65
2023/09/20 05:26:21;;;;;;;10.00;5.90;;;16.40;99.90;;;;;;5052144;28;20239;-65
2023/09/20 05:28:50;;;;;;;8.53;5.00;;;16.30;99.90;;;;;;5030422;28;20232;-63
2023/09/20 05:31:18;;;;;;;9.33;4.77;;;16.40;99.90;;;;;;5036012;28;20223;-64
2023/09/20 05:33:48;;;;;;;8.70;4.03;;;16.40;99.90;;;;;;5044019;28;20709;-64
2023/09/20 05:36:21;;;;;;;8.10;4.33;;;16.40;99.90;;;;;;5049122;28;20188;-65
2023/09/20 05:38:49;;;;;;;5.50;3.83;;;16.40;99.90;;;;;;5051341;28;20185;-64
2023/09/20 05:41:18;;;;;;;9.70;5.03;;;16.40;99.90;;;;;;5052234;28;20226;-63
2023/09/20 05:43:48;;;;;;;7.07;4.33;;;16.40;99.90;;;;;;5054762;28;20284;-64
2023/09/20 05:46:17;;;;;;;7.70;4.47;;;16.40;99.90;;;;;;5057675;28;20227;-66
2023/09/20 05:48:46;;;;;;;11.10;4.90;;;16.40;99.90;;;;;;5057603;28;20219;-65
2023/09/20 05:51:17;;;;;;;9.20;5.00;;;16.40;99.90;;;;;;5051981;28;20277;-65
2023/09/20 05:53:45;;;;;;;8.77;4.43;;;16.50;99.90;;;;;;5051712;28;20198;-66
2023/09/20 05:56:17;;;;;;;6.90;4.77;;;16.50;99.90;;;;;;5051033;28;20236;-66
2023/09/20 05:58:49;;;;;;;5.27;3.90;;;16.60;99.90;;;;;;5056110;28;20222;-65
2023/09/20 06:01:17;;;;;;;11.40;4.33;;;16.60;99.90;;;;;;5050238;28;20233;-65
2023/09/20 06:03:47;;;;;;;7.53;3.60;;;16.60;99.90;;;;;;5044306;28;20217;-65
2023/09/20 06:06:15;;;;;;;7.20;4.20;;;16.60;99.90;;;;;;5051725;28;20211;-66
2023/09/20 06:08:45;;;;;;;7.83;3.70;;;16.60;99.90;;;;;;5051239;28;20209;-65
2023/09/20 06:11:14;;;;;;;7.70;3.40;;;16.70;99.90;;;;;;5052516;28;20277;-63
2023/09/20 06:13:42;;;;;;;13.83;3.20;;;16.80;99.90;;;;;;5053537;28;20312;-64
2023/09/20 06:16:12;;;;;;;3.93;3.13;;;16.80;99.90;;;;;;5049347;28;20235;-64
2023/09/20 06:18:42;;;;;;;3.57;3.20;;;16.90;99.90;;;;;;5044455;28;20215;-61
2023/09/20 06:21:31;;;;;;;4.77;3.03;;;16.90;99.90;;;;;;5050790;28;20283;-65
2023/09/20 06:24:01;;;;;;;5.63;2.93;;;16.90;99.90;;;;;;5054332;28;20191;-66
2023/09/20 06:26:29;;;;;;;5.87;3.10;;;16.90;99.90;;;;;;5052116;28;20216;-65
2023/09/20 06:28:58;;;;;;;5.23;3.20;;;17.00;99.90;;;;;;5054159;28;20224;-65
2023/09/20 06:31:28;;;;;;;7.53;3.23;;;17.00;99.90;;;;;;5044584;28;20232;-65
2023/09/20 06:33:56;;;;;;;7.27;3.03;;;17.10;99.90;;;;;;5054227;28;20230;-65
2023/09/20 06:36:24;;;;;;;4.30;3.07;;;17.10;99.90;;;;;;5050470;28;20562;-65
2023/09/20 06:38:52;;;;;;;6.67;3.30;;;17.10;99.90;;;;;;5051710;28;20190;-63
2023/09/20 06:41:21;;;;;;;7.00;3.20;;;17.20;99.90;;;;;;5052887;28;20210;-64
2023/09/20 06:43:53;;;;;;;6.30;3.00;;;17.20;99.90;;;;;;5052606;28;20234;-63
2023/09/20 06:46:24;;;;;;;6.67;2.93;;;17.30;99.90;;;;;;5054363;28;20230;-63
2023/09/20 06:48:57;;;;;;;8.80;3.30;;;17.30;99.90;;;;;;5059294;28;20212;-62
2023/09/20 06:51:26;;;;;;;7.43;3.00;;;17.30;99.90;;;;;;5053785;28;20242;-65
2023/09/20 06:53:58;;;;;;;7.37;3.00;;;17.40;99.90;;;;;;5059042;28;20195;-64
2023/09/20 06:56:27;;;;;;;3.90;2.97;;;17.40;99.90;;;;;;5055309;28;20277;-65
2023/09/20 06:58:56;;;;;;;4.27;2.83;;;17.40;99.90;;;;;;5055018;28;20306;-65
2023/09/20 07:01:26;;;;;;;6.40;2.77;;;17.50;99.90;;;;;;5054968;28;20223;-65
2023/09/20 07:03:56;;;;;;;4.57;3.00;;;17.60;99.90;;;;;;5050758;28;20220;-64
2023/09/20 07:06:31;;;;;;;4.77;3.20;;;17.70;99.90;;;;;;5055219;28;20407;-66
2023/09/20 07:08:59;;;;;;;7.47;3.50;;;17.70;99.90;;;;;;5053274;28;20666;-65
2023/09/20 07:11:29;;;;;;;4.07;2.63;;;17.70;99.90;;;;;;5053246;28;20224;-66
2023/09/20 07:14:05;;;;;;;4.70;2.70;;;17.70;99.90;;;;;;5051372;28;20253;-65
2023/09/20 07:16:40;;;;;;;8.17;3.23;;;17.70;99.90;;;;;;5057565;28;20227;-64
2023/09/20 07:19:18;;;;;;;11.13;3.30;;;17.80;99.90;;;;;;5053951;28;20228;-65
2023/09/20 07:21:46;;;;;;;7.70;3.17;;;17.80;99.90;;;;;;5055523;28;20920;-64
2023/09/20 07:24:16;;;;;;;4.67;3.17;;;17.80;99.90;;;;;;5059246;28;20619;-62
2023/09/20 07:26:44;;;;;;;5.10;3.10;;;17.90;99.90;;;;;;5052406;28;20216;-65
2023/09/20 07:29:13;;;;;;;9.13;2.93;;;17.90;99.90;;;;;;5058366;28;20251;-66
2023/09/20 07:31:45;;;;;;;6.93;3.10;;;18.00;99.90;;;;;;5050865;28;20227;-64
2023/09/20 07:34:15;;;;;;;8.00;3.00;;;18.00;99.90;;;;;;5049933;28;20571;-65
2023/09/20 07:36:49;;;;;;;5.47;2.90;;;18.10;99.90;;;;;;5044804;28;20359;-65
2023/09/20 07:39:21;;;;;;;6.50;2.90;;;18.10;99.90;;;;;;5053039;28;20226;-67
2023/09/20 07:41:58;;;;;;;2.67;2.47;;;18.30;99.90;;;;;;5056968;28;20282;-63
2023/09/20 07:44:30;;;;;;;3.20;2.90;;;18.40;99.90;;;;;;5054594;28;20224;-65
2023/09/20 07:46:59;;;;;;;4.37;2.97;;;18.50;99.90;;;;;;5054250;28;20228;-64
2023/09/20 07:49:28;;;;;;;6.47;2.90;;;18.60;99.90;;;;;;5045815;28;20239;-66
2023/09/20 07:51:58;;;;;;;4.53;2.90;;;18.70;99.90;;;;;;5055594;28;20552;-66
2023/09/20 07:54:27;;;;;;;4.70;2.60;;;18.70;99.90;;;;;;5057413;28;20419;-64
2023/09/20 07:56:55;;;;;;;7.57;2.60;;;18.70;99.90;;;;;;5058492;28;20188;-65
2023/09/20 07:59:26;;;;;;;3.83;2.63;;;18.80;99.90;;;;;;5057114;28;20216;-67
2023/09/20 08:01:54;;;;;;;4.37;2.80;;;18.80;99.90;;;;;;5059358;28;20216;-66
2023/09/20 08:04:23;;;;;;;3.90;2.20;;;18.80;99.90;;;;;;5054236;28;20235;-66
2023/09/20 08:06:53;;;;;;;3.60;2.40;;;18.90;99.90;;;;;;5053773;28;20229;-65
2023/09/20 08:09:23;;;;;;;7.03;2.90;;;18.90;99.90;;;;;;5059259;28;20287;-66
2023/09/20 08:11:52;;;;;;;5.37;2.50;;;18.90;99.90;;;;;;5053657;28;20206;-65
2023/09/20 08:14:20;;;;;;;2.67;1.90;;;19.00;99.90;;;;;;5054260;28;20220;-66
2023/09/20 08:19:36;;;;;;;6.63;2.90;;;19.20;99.90;;;;;;5054279;28;20266;-63
2023/09/20 08:22:05;;;;;;;3.13;2.30;;;19.20;99.90;;;;;;5055076;28;20238;-66
2023/09/20 09:00:49;;;;;;;5.80;2.30;;;19.60;99.90;;;;;;5055347;28;20213;-65
2023/09/20 09:03:18;;;;;;;5.43;2.27;;;19.60;99.90;;;;;;5050244;28;20677;-64
2023/09/20 09:05:48;;;;;;;3.97;2.17;;;19.70;99.90;;;;;;5055875;28;20196;-66
2023/09/20 09:08:16;;;;;;;2.83;2.30;;;19.80;99.90;;;;;;5052961;28;20220;-64
2023/09/20 09:10:44;;;;;;;2.80;2.33;;;19.90;99.90;;;;;;5051100;28;20303;-64
2023/09/20 09:13:14;;;;;;;4.40;2.20;;;19.90;99.90;;;;;;5051644;28;22018;-64
2023/09/20 09:15:45;;;;;;;2.20;2.03;;;19.80;99.90;;;;;;5051748;28;20228;-63
2023/09/20 09:18:17;;;;;;;2.90;2.40;;;19.80;99.90;;;;;;5054091;28;20201;-65
2023/09/20 09:20:51;;;;;;;2.40;2.20;;;19.70;99.90;;;;;;5054706;28;20211;-61
2023/09/20 09:23:33;;;;;;;4.27;2.10;;;19.70;99.90;;;;;;5054153;28;20571;-63
2023/09/20 09:26:02;;;;;;;7.97;2.40;;;19.70;99.90;;;;;;5052408;28;20216;-63
2023/09/20 09:28:32;;;;;;;4.80;2.20;;;19.80;99.90;;;;;;5054196;28;20248;-64
2023/09/20 09:31:01;;;;;;;2.30;2.10;;;19.80;99.90;;;;;;5053467;28;20223;-65
2023/09/20 09:33:29;;;;;;;5.27;2.37;;;19.90;99.90;;;;;;5057460;28;20228;-64
2023/09/20 09:35:58;;;;;;;5.73;2.57;;;19.90;99.90;;;;;;5049798;28;20594;-65
2023/09/20 09:38:26;;;;;;;3.47;2.07;;;20.00;99.90;;;;;;5039925;28;20266;-64
2023/09/20 09:40:56;;;;;;;4.57;2.20;;;20.10;99.90;;;;;;5053379;28;20322;-65
2023/09/20 09:43:27;;;;;;;6.50;2.73;;;20.20;99.90;;;;;;5056178;28;20295;-68
2023/09/20 09:46:06;;;;;;;4.33;2.03;;;20.40;99.90;;;;;;5050630;28;20256;-63
2023/09/20 09:48:37;;;;;;;2.97;2.00;;;20.50;99.90;;;;;;5050983;28;20254;-65
2023/09/20 09:51:06;;;;;;;2.23;2.13;;;20.60;99.90;;;;;;5061561;28;20203;-63
2023/09/20 09:53:39;;;;;;;4.67;2.20;;;20.60;99.90;;;;;;5053453;28;20671;-65
2023/09/20 09:56:09;;;;;;;3.93;2.27;;;20.60;99.90;;;;;;5053022;28;20225;-65
2023/09/20 09:58:40;;;;;;;6.03;2.23;;;20.60;99.90;;;;;;5056933;28;20231;-65
2023/09/20 10:01:14;;;;;;;3.00;2.33;;;20.70;99.90;;;;;;5052919;28;20282;-66
2023/09/20 10:03:47;;;;;;;6.53;2.40;;;20.80;99.90;;;;;;5053498;28;20568;-63
2023/09/20 10:06:22;;;;;;;5.43;2.40;;;20.80;99.90;;;;;;5054474;28;20189;-66
2023/09/20 10:08:54;;;;;;;2.83;1.97;;;20.70;99.90;;;;;;5055857;28;20204;-65
2023/09/20 10:11:24;;;;;;;1.93;1.80;;;20.60;99.90;;;;;;5047547;28;20244;-63
2023/09/20 10:13:55;;;;;;;4.20;2.30;;;20.50;99.90;;;;;;5049822;28;20224;-64
2023/09/20 10:16:24;;;;;;;5.90;2.00;;;20.40;99.90;;;;;;5049923;28;20236;-64
2023/09/20 10:18:57;;;;;;;2.40;1.93;;;20.30;99.90;;;;;;5053311;28;21156;-63
2023/09/20 10:21:30;;;;;;;4.27;2.13;;;20.30;99.90;;;;;;5046959;28;20633;-64
2023/09/20 10:24:04;;;;;;;3.33;2.30;;;20.20;99.90;;;;;;5054207;28;20211;-65
2023/09/20 10:26:35;;;;;;;4.03;2.20;;;20.20;99.90;;;;;;5053754;28;20559;-66
2023/09/20 10:29:23;;;;;;;2.93;1.83;;;20.30;99.90;;;;;;5049968;28;20219;-65
2023/09/20 10:32:09;;;;;;;1.97;1.87;;;20.40;99.90;;;;;;5048559;28;20298;-65
2023/09/20 10:34:39;;;;;;;3.67;2.40;;;20.60;99.90;;;;;;5052871;28;20221;-65
2023/09/20 10:37:09;;;;;;;6.17;2.13;;;20.60;99.90;;;;;;5050646;28;21890;-64
2023/09/20 10:39:39;;;;;;;5.37;2.03;;;20.60;99.90;;;;;;5045251;28;20248;-65
2023/09/20 10:42:12;;;;;;;2.30;2.10;;;20.70;99.90;;;;;;5046820;28;20189;-65
2023/09/20 10:44:42;;;;;;;3.10;2.07;;;20.80;99.90;;;;;;5047303;28;20225;-64
2023/09/20 10:47:13;;;;;;;6.20;2.30;;;20.90;99.90;;;;;;5053761;28;20307;-65
2023/09/20 10:49:45;;;;;;;3.27;2.37;;;20.90;99.90;;;;;;5052919;28;20232;-64
2023/09/20 10:52:14;;;;;;;3.53;2.23;;;20.90;99.90;;;;;;5048383;28;20218;-65
2023/09/20 10:54:44;;;;;;;2.73;2.20;;;21.00;99.90;;;;;;5051615;28;20612;-65
2023/09/20 10:57:15;;;;;;;5.83;2.07;;;21.10;99.90;;;;;;5055920;28;20196;-65
2023/09/20 10:59:45;;;;;;;3.30;2.03;;;21.00;99.90;;;;;;5047878;28;20184;-65
2023/09/20 11:02:17;;;;;;;23.27;2.50;;;21.00;99.90;;;;;;5053186;28;20620;-65
2023/09/20 11:04:48;;;;;;;5.83;1.93;;;21.10;99.90;;;;;;5055087;28;20672;-67
2023/09/20 11:07:19;;;;;;;4.73;2.17;;;21.10;99.90;;;;;;5052852;28;20222;-65
2023/09/20 11:09:48;;;;;;;2.90;2.10;;;21.10;99.90;;;;;;5050957;28;20221;-63
2023/09/20 11:12:17;;;;;;;2.40;1.90;;;21.00;99.90;;;;;;5052184;28;20246;-65
2023/09/20 11:14:47;;;;;;;5.40;2.20;;;21.00;99.90;;;;;;5053789;28;20732;-65
2023/09/20 11:17:18;;;;;;;2.97;1.80;;;21.00;99.90;;;;;;5053804;28;20229;-66
2023/09/20 11:19:48;;;;;;;3.93;1.90;;;21.10;99.90;;;;;;5052753;28;20316;-65
2023/09/20 11:22:18;;;;;;;4.33;2.40;;;21.00;99.90;;;;;;5052803;28;21015;-62
2023/09/20 11:24:51;;;;;;;2.07;1.93;;;21.10;99.90;;;;;;5046190;28;20226;-64
2023/09/20 11:27:20;;;;;;;3.23;1.90;;;21.20;99.90;;;;;;5051937;28;20228;-63
2023/09/20 11:29:48;;;;;;;1.67;1.57;;;21.30;99.90;;;;;;5059618;28;20231;-63
2023/09/20 11:32:22;;;;;;;3.17;1.60;;;21.10;99.90;;;;;;5048693;28;20225;-65
2023/09/20 11:34:51;;;;;;;2.70;1.97;;;21.00;99.90;;;;;;5035068;28;20674;-66
2023/09/20 11:37:21;;;;;;;3.97;2.00;;;20.90;99.90;;;;;;5033711;28;20246;-63
2023/09/20 11:39:50;;;;;;;2.83;2.07;;;20.80;99.90;;;;;;5046004;28;20239;-66
2023/09/20 11:42:30;;;;;;;4.73;2.30;;;20.90;99.90;;;;;;5035127;28;20228;-62
2023/09/20 11:45:02;;;;;;;3.50;2.13;;;20.90;99.90;;;;;;5034796;28;20193;-63
2023/09/20 11:47:52;;;;;;;6.80;1.77;;;21.10;99.90;;;;;;5034442;28;20283;-65
2023/09/20 11:50:24;;;;;;;5.20;1.77;;;21.10;99.90;;;;;;5048492;28;20220;-69
2023/09/20 11:52:53;;;;;;;1.93;1.80;;;21.20;99.90;;;;;;5045229;28;20226;-65
2023/09/20 11:55:22;;;;;;;3.37;2.00;;;21.30;99.90;;;;;;5044905;28;20612;-65
2023/09/20 11:57:52;;;;;;;5.17;2.17;;;21.20;99.90;;;;;;5045229;28;20689;-64
2023/09/20 12:00:24;;;;;;;6.30;2.10;;;21.20;99.90;;;;;;5047759;28;20209;-65
2023/09/20 12:02:54;;;;;;;4.73;2.00;;;21.20;99.90;;;;;;5057057;28;20201;-65
2023/09/20 12:05:23;;;;;;;2.80;1.70;;;21.40;99.90;;;;;;5051434;28;20295;-63
2023/09/20 12:07:56;;;;;;;2.67;1.80;;;21.40;99.90;;;;;;5050470;28;20626;-65
2023/09/20 12:10:26;;;;;;;5.10;1.93;;;21.50;99.90;;;;;;5047011;28;20230;-65
2023/09/20 12:12:55;;;;;;;2.07;1.87;;;21.50;99.90;;;;;;5055826;28;20235;-66
2023/09/20 12:15:25;;;;;;;2.70;1.70;;;21.50;99.90;;;;;;5047110;28;20247;-66
2023/09/20 12:17:56;;;;;;;4.07;1.77;;;21.60;99.90;;;;;;5057175;28;20483;-66
2023/09/20 12:20:25;;;;;;;1.83;1.73;;;21.70;99.90;;;;;;5050798;28;20275;-65
2023/09/20 12:22:55;;;;;;;3.23;2.10;;;21.80;99.90;;;;;;5051186;28;20227;-66
2023/09/20 12:25:24;;;;;;;3.70;1.80;;;21.90;99.90;;;;;;5051966;28;20648;-65
2023/09/20 12:27:52;;;;;;;2.13;1.90;;;22.00;99.90;;;;;;5058313;28;20233;-65
2023/09/20 12:30:21;;;;;;;2.90;1.70;;;22.00;99.90;;;;;;5056570;28;20218;-66
2023/09/20 12:32:49;;;;;;;3.27;1.80;;;22.00;99.90;;;;;;5051850;28;20207;-65
2023/09/20 12:35:22;;;;;;;1.80;1.70;;;22.00;99.90;;;;;;5049070;28;20253;-63
2023/09/20 12:37:51;;;;;;;2.80;2.13;;;22.30;99.90;;;;;;5058130;28;20250;-63
2023/09/20 12:40:23;;;;;;;2.23;2.00;;;22.40;99.90;;;;;;5052430;28;20686;-67
2023/09/20 12:42:52;;;;;;;4.23;1.80;;;22.40;99.90;;;;;;5049947;28;20223;-65
2023/09/20 12:45:20;;;;;;;4.73;2.10;;;22.50;99.90;;;;;;5054209;28;20194;-65
2023/09/20 12:47:52;;;;;;;3.73;1.77;;;22.70;99.90;;;;;;5054471;28;20210;-65
2023/09/20 12:50:23;;;;;;;2.23;2.03;;;22.70;99.90;;;;;;5057225;28;20210;-64
2023/09/20 12:52:51;;;;;;;5.70;2.20;;;22.60;99.90;;;;;;5052109;28;20226;-64
2023/09/20 12:55:19;;;;;;;3.07;1.70;;;22.40;99.90;;;;;;5053184;28;20222;-66
2023/09/20 12:57:48;;;;;;;2.20;1.87;;;22.40;99.90;;;;;;5055349;28;20232;-66
2023/09/20 13:00:18;;;;;;;4.27;1.80;;;22.50;99.90;;;;;;5049237;28;20213;-65
2023/09/20 13:03:08;;;;;;;4.37;2.00;;;22.50;99.90;;;;;;5053149;28;20199;-64
2023/09/20 13:05:38;;;;;;;2.03;1.60;;;22.40;99.90;;;;;;5050157;28;20217;-66
2023/09/20 13:08:13;;;;;;;3.53;2.00;;;22.40;99.90;;;;;;5048910;28;20237;-67
2023/09/20 13:10:41;;;;;;;2.67;1.90;;;22.40;99.90;;;;;;5047282;28;20229;-64
2023/09/20 13:13:10;;;;;;;2.10;2.00;;;22.40;99.90;;;;;;5059694;28;20313;-64
2023/09/20 13:15:42;;;;;;;4.77;2.03;;;22.40;99.90;;;;;;5053863;28;20677;-65
2023/09/20 13:18:16;;;;;;;4.13;2.10;;;22.30;99.90;;;;;;5049515;28;20276;-65
2023/09/20 13:20:46;;;;;;;4.90;2.40;;;22.10;99.90;;;;;;5055027;28;20193;-66
2023/09/20 13:23:15;;;;;;;4.77;2.30;;;22.00;99.90;;;;;;5059846;28;20214;-64
2023/09/20 13:25:43;;;;;;;4.77;2.20;;;22.00;99.90;;;;;;5056164;28;20232;-65
2023/09/20 13:28:12;;;;;;;1.93;1.83;;;22.00;99.90;;;;;;5054102;28;20271;-66
2023/09/20 13:30:41;;;;;;;4.60;2.00;;;22.10;99.90;;;;;;5053487;28;20241;-66
2023/09/20 13:33:11;;;;;;;2.50;2.10;;;22.20;99.90;;;;;;5058350;28;20199;-64
2023/09/20 13:35:41;;;;;;;5.07;2.37;;;22.20;99.90;;;;;;5049645;28;20288;-64
2023/09/20 13:38:13;;;;;;;2.20;2.10;;;22.30;99.90;;;;;;5052251;28;20248;-64
2023/09/20 13:40:43;;;;;;;2.57;2.37;;;22.30;99.90;;;;;;5054995;28;20220;-64